sensor_id;sensor_type;location;lat;lon;timestamp;temperature;humidity
14529;DHT22;7351;51.194;4.098;2022-11-04T00:13:11;11.00;99.90
14529;DHT22;7351;51.194;4.098;2022-11-04T00:22:14;10.90;99.90
14529;DHT22;7351;51.194;4.098;2022-11-04T00:41:04;10.90;99.90
14529;DHT22;7351;51.194;4.098;2022-11-04T00:43:46;10.90;99.90
14529;DHT22;7351;51.194;4.098;2022-11-04T00:59:27;10.60;99.90
14529;DHT22;7351;51.194;4.098;2022-11-04T01:08:37;10.60;99.90
14529;DHT22;7351;51.194;4.098;2022-11-04T01:15:05;10.60;99.90
14529;DHT22;7351;51.194;4.098;2022-11-04T01:20:18;10.50;99.90
14529;DHT22;7351;51.194;4.098;2022-11-04T01:23:22;10.20;99.90
14529;DHT22;7351;51.194;4.098;2022-11-04T01:29:30;10.30;99.90
14529;DHT22;7351;51.194;4.098;2022-11-04T01:55:59;10.60;99.90
14529;DHT22;7351;51.194;4.098;2022-11-04T02:04:57;10.30;99.90
14529;DHT22;7351;51.194;4.098;2022-11-04T05:46:08;11.70;99.90
14529;DHT22;7351;51.194;4.098;2022-11-04T05:48:35;11.80;99.90
14529;DHT22;7351;51.194;4.098;2022-11-04T05:51:02;11.90;99.90
14529;DHT22;7351;51.194;4.098;2022-11-04T08:27:07;13.10;99.90
14529;DHT22;7351;51.194;4.098;2022-11-04T08:29:35;13.10;99.90
14529;DHT22;7351;51.194;4.098;2022-11-04T08:32:02;13.20;99.90
14529;DHT22;7351;51.194;4.098;2022-11-04T08:34:31;13.30;99.90
14529;DHT22;7351;51.194;4.098;2022-11-04T08:39:26;13.50;99.90
14529;DHT22;7351;51.194;4.098;2022-11-04T08:41:54;13.50;99.90
14529;DHT22;7351;51.194;4.098;2022-11-04T08:44:26;13.40;99.90
14529;DHT22;7351;51.194;4.098;2022-11-04T08:46:54;13.40;99.90
14529;DHT22;7351;51.194;4.098;2022-11-04T08:49:22;13.40;99.90
14529;DHT22;7351;51.194;4.098;2022-11-04T08:54:39;13.30;99.90
14529;DHT22;7351;51.194;4.098;2022-11-04T08:57:07;13.30;99.90
14529;DHT22;7351;51.194;4.098;2022-11-04T08:59:36;13.30;99.90
14529;DHT22;7351;51.194;4.098;2022-11-04T09:02:05;12.00;99.90
14529;DHT22;7351;51.194;4.098;2022-11-04T09:04:33;13.30;99.90
14529;DHT22;7351;51.194;4.098;2022-11-04T09:07:01;13.40;99.90
14529;DHT22;7351;51.194;4.098;2022-11-04T09:09:28;13.90;99.90
14529;DHT22;7351;51.194;4.098;2022-11-04T09:11:55;13.40;99.90
14529;DHT22;7351;51.194;4.098;2022-11-04T09:14:22;13.40;99.90
14529;DHT22;7351;51.194;4.098;2022-11-04T09:16:57;13.60;99.90
14529;DHT22;7351;51.194;4.098;2022-11-04T09:19:25;13.40;99.90
14529;DHT22;7351;51.194;4.098;2022-11-04T09:21:52;13.50;99.90
14529;DHT22;7351;51.194;4.098;2022-11-04T09:24:19;13.70;99.90
14529;DHT22;7351;51.194;4.098;2022-11-04T09:26:46;13.80;99.90
14529;DHT22;7351;51.194;4.098;2022-11-04T09:29:16;13.90;99.90
14529;DHT22;7351;51.194;4.098;2022-11-04T09:31:43;13.80;99.90
14529;DHT22;7351;51.194;4.098;2022-11-04T09:44:56;13.00;99.90
14529;DHT22;7351;51.194;4.098;2022-11-04T09:47:26;13.20;99.90
14529;DHT22;7351;51.194;4.098;2022-11-04T09:49:54;13.50;99.90
14529;DHT22;7351;51.194;4.098;2022-11-04T09:52:25;13.70;99.90
14529;DHT22;7351;51.194;4.098;2022-11-04T09:54:57;13.80;99.90
14529;DHT22;7351;51.194;4.098;2022-11-04T09:57:26;13.90;99.90
14529;DHT22;7351;51.194;4.098;2022-11-04T09:59:55;14.00;99.90
14529;DHT22;7351;51.194;4.098;2022-11-04T10:02:54;14.10;99.90
14529;DHT22;7351;51.194;4.098;2022-11-04T10:05:34;14.20;99.90
14529;DHT22;7351;51.194;4.098;2022-11-04T10:08:30;14.20;99.90
14529;DHT22;7351;51.194;4.098;2022-11-04T10:11:05;14.10;99.90
14529;DHT22;7351;51.194;4.098;2022-11-04T10:13:48;14.20;99.90
14529;DHT22;7351;51.194;4.098;2022-11-04T10:16:40;14.30;99.90
14529;DHT22;7351;51.194;4.098;2022-11-04T10:19:28;14.50;99.90
14529;DHT22;7351;51.194;4.098;2022-11-04T10:22:02;14.30;99.90
14529;DHT22;7351;51.194;4.098;2022-11-04T10:24:39;14.30;99.90
14529;DHT22;7351;51.194;4.098;2022-11-04T10:27:13;14.40;99.90
14529;DHT22;7351;51.194;4.098;2022-11-04T10:29:43;14.50;99.90
14529;DHT22;7351;51.194;4.098;2022-11-04T10:32:15;14.50;99.90
14529;DHT22;7351;51.194;4.098;2022-11-04T10:34:46;14.50;99.90
14529;DHT22;7351;51.194;4.098;2022-11-04T10:37:14;14.50;99.90
14529;DHT22;7351;51.194;4.098;2022-11-04T10:39:43;14.60;99.90
14529;DHT22;7351;51.194;4.098;2022-11-04T10:42:12;14.50;99.90
14529;DHT22;7351;51.194;4.098;2022-11-04T10:44:40;14.60;99.90
14529;DHT22;7351;51.194;4.098;2022-11-04T10:50:56;14.00;99.90
14529;DHT22;7351;51.194;4.098;2022-11-04T10:53:26;14.10;99.90
14529;DHT22;7351;51.194;4.098;2022-11-04T10:55:58;14.10;99.90
14529;DHT22;7351;51.194;4.098;2022-11-04T10:58:30;13.80;99.90
14529;DHT22;7351;51.194;4.098;2022-11-04T11:01:21;13.70;99.90
14529;DHT22;7351;51.194;4.098;2022-11-04T11:06:49;13.60;99.90
14529;DHT22;7351;51.194;4.098;2022-11-04T11:09:19;13.70;99.90
14529;DHT22;7351;51.194;4.098;2022-11-04T11:11:51;13.80;99.90
14529;DHT22;7351;51.194;4.098;2022-11-04T11:14:30;13.80;99.90
14529;DHT22;7351;51.194;4.098;2022-11-04T11:20:22;13.80;99.90
14529;DHT22;7351;51.194;4.098;2022-11-04T11:25:38;13.80;99.90
14529;DHT22;7351;51.194;4.098;2022-11-04T11:28:11;13.80;99.90
14529;DHT22;7351;51.194;4.098;2022-11-04T11:30:54;13.90;99.90
14529;DHT22;7351;51.194;4.098;2022-11-04T11:33:25;14.20;99.90
14529;DHT22;7351;51.194;4.098;2022-11-04T11:35:54;14.40;99.90
14529;DHT22;7351;51.194;4.098;2022-11-04T11:38:32;14.50;99.90
14529;DHT22;7351;51.194;4.098;2022-11-04T11:41:07;14.20;99.90
14529;DHT22;7351;51.194;4.098;2022-11-04T11:43:36;14.10;99.90
14529;DHT22;7351;51.194;4.098;2022-11-04T11:46:04;14.20;99.90
14529;DHT22;7351;51.194;4.098;2022-11-04T11:48:38;14.40;99.90
14529;DHT22;7351;51.194;4.098;2022-11-04T11:51:06;14.50;99.90
14529;DHT22;7351;51.194;4.098;2022-11-04T11:53:33;14.70;99.90
14529;DHT22;7351;51.194;4.098;2022-11-04T11:56:16;14.80;99.90
14529;DHT22;7351;51.194;4.098;2022-11-04T12:01:51;14.30;99.90
14529;DHT22;7351;51.194;4.098;2022-11-04T12:04:24;14.50;99.90
14529;DHT22;7351;51.194;4.098;2022-11-04T12:07:00;14.60;99.90
14529;DHT22;7351;51.194;4.098;2022-11-04T12:09:35;14.80;99.90
14529;DHT22;7351;51.194;4.098;2022-11-04T12:15:16;14.50;99.90
14529;DHT22;7351;51.194;4.098;2022-11-04T12:17:57;14.50;99.90
14529;DHT22;7351;51.194;4.098;2022-11-04T12:20:42;14.50;99.90
14529;DHT22;7351;51.194;4.098;2022-11-04T12:32:38;14.40;99.90
14529;DHT22;7351;51.194;4.098;2022-11-04T14:47:42;12.10;99.90
14529;DHT22;7351;51.194;4.098;2022-11-04T18:39:27;11.00;99.90
14529;DHT22;7351;51.194;4.098;2022-11-04T18:44:32;10.80;99.90
14529;DHT22;7351;51.194;4.098;2022-11-04T18:46:59;10.70;99.90
14529;DHT22;7351;51.194;4.098;2022-11-04T19:03:15;10.40;99.90
14529;DHT22;7351;51.194;4.098;2022-11-04T19:09:07;10.60;99.90
14529;DHT22;7351;51.194;4.098;2022-11-04T19:11:38;10.50;99.90
14529;DHT22;7351;51.194;4.098;2022-11-04T19:14:07;10.40;99.90
14529;DHT22;7351;51.194;4.098;2022-11-04T19:19:15;10.40;99.90
14529;DHT22;7351;51.194;4.098;2022-11-04T19:41:12;10.30;99.90
14529;DHT22;7351;51.194;4.098;2022-11-04T19:43:57;10.40;99.90
14529;DHT22;7351;51.194;4.098;2022-11-04T20:30:35;10.40;99.90
14529;DHT22;7351;51.194;4.098;2022-11-04T20:33:03;10.40;99.90
14529;DHT22;7351;51.194;4.098;2022-11-04T20:35:36;10.40;99.90
14529;DHT22;7351;51.194;4.098;2022-11-04T20:38:06;10.60;99.90
14529;DHT22;7351;51.194;4.098;2022-11-04T20:43:45;10.50;99.90
14529;DHT22;7351;51.194;4.098;2022-11-04T20:58:43;10.20;99.90
14529;DHT22;7351;51.194;4.098;2022-11-04T21:01:12;10.50;99.90
14529;DHT22;7351;51.194;4.098;2022-11-04T21:03:40;10.40;99.90
14529;DHT22;7351;51.194;4.098;2022-11-04T21:06:09;9.50;99.90
14529;DHT22;7351;51.194;4.098;2022-11-04T21:08:36;10.30;99.90
14529;DHT22;7351;51.194;4.098;2022-11-04T21:11:05;10.10;99.90
14529;DHT22;7351;51.194;4.098;2022-11-04T21:13:33;10.20;99.90
14529;DHT22;7351;51.194;4.098;2022-11-04T21:28:53;10.40;99.90
14529;DHT22;7351;51.194;4.098;2022-11-04T21:31:21;10.30;99.90
14529;DHT22;7351;51.194;4.098;2022-11-04T21:39:44;9.40;99.90
14529;DHT22;7351;51.194;4.098;2022-11-04T21:52:23;10.60;99.90
14529;DHT22;7351;51.194;4.098;2022-11-04T21:58:13;10.40;99.90
14529;DHT22;7351;51.194;4.098;2022-11-04T22:00:41;10.40;99.90
14529;DHT22;7351;51.194;4.098;2022-11-04T22:03:09;10.30;99.90
14529;DHT22;7351;51.194;4.098;2022-11-04T22:05:36;10.40;99.90
14529;DHT22;7351;51.194;4.098;2022-11-04T22:08:05;10.30;99.90
14529;DHT22;7351;51.194;4.098;2022-11-04T22:13:43;10.20;99.90
14529;DHT22;7351;51.194;4.098;2022-11-04T22:29:07;10.20;99.90
14529;DHT22;7351;51.194;4.098;2022-11-04T22:31:39;10.20;99.90
14529;DHT22;7351;51.194;4.098;2022-11-04T22:34:07;10.20;99.90
14529;DHT22;7351;51.194;4.098;2022-11-04T22:36:34;10.20;99.90
14529;DHT22;7351;51.194;4.098;2022-11-04T22:42:25;10.10;99.90
14529;DHT22;7351;51.194;4.098;2022-11-04T22:44:54;10.00;99.90
14529;DHT22;7351;51.194;4.098;2022-11-04T22:47:21;10.00;99.90
14529;DHT22;7351;51.194;4.098;2022-11-04T22:49:48;9.90;99.90
14529;DHT22;7351;51.194;4.098;2022-11-04T22:52:17;9.80;99.90
14529;DHT22;7351;51.194;4.098;2022-11-04T22:55:03;9.80;99.90
14529;DHT22;7351;51.194;4.098;2022-11-04T22:57:30;9.90;99.90
14529;DHT22;7351;51.194;4.098;2022-11-04T23:00:00;9.80;99.90
14529;DHT22;7351;51.194;4.098;2022-11-04T23:05:41;9.80;99.90
14529;DHT22;7351;51.194;4.098;2022-11-04T23:08:09;9.70;99.90
14529;DHT22;7351;51.194;4.098;2022-11-04T23:10:36;8.10;99.90
14529;DHT22;7351;51.194;4.098;2022-11-04T23:13:21;10.20;99.90
14529;DHT22;7351;51.194;4.098;2022-11-04T23:16:13;9.60;99.90
14529;DHT22;7351;51.194;4.098;2022-11-04T23:18:59;9.60;99.90
14529;DHT22;7351;51.194;4.098;2022-11-04T23:21:27;9.60;99.90
14529;DHT22;7351;51.194;4.098;2022-11-04T23:24:12;9.60;99.90
14529;DHT22;7351;51.194;4.098;2022-11-04T23:33:15;9.60;99.90
14529;DHT22;7351;51.194;4.098;2022-11-04T23:36:01;9.60;99.90
14529;DHT22;7351;51.194;4.098;2022-11-04T23:38:45;9.60;99.90
14529;DHT22;7351;51.194;4.098;2022-11-04T23:41:12;9.60;99.90
14529;DHT22;7351;51.194;4.098;2022-11-04T23:49:56;9.70;99.90
14529;DHT22;7351;51.194;4.098;2022-11-04T23:52:40;9.70;99.90
14529;DHT22;7351;51.194;4.098;2022-11-04T23:58:49;9.60;99.90
